sensor_id;sensor_type;location;lat;lon;timestamp;P1;durP1;ratioP1;P2;durP2;ratioP2
12603;SDS011;6367;52.508;13.284;2022-09-03T00:01:49;2.57;;;1.50;;
12603;SDS011;6367;52.508;13.284;2022-09-03T00:04:27;1.40;;;1.30;;
12603;SDS011;6367;52.508;13.284;2022-09-03T00:07:02;2.00;;;1.20;;
12603;SDS011;6367;52.508;13.284;2022-09-03T00:09:35;2.53;;;1.50;;
12603;SDS011;6367;52.508;13.284;2022-09-03T00:12:08;1.97;;;1.40;;
12603;SDS011;6367;52.508;13.284;2022-09-03T00:14:40;2.23;;;1.20;;
12603;SDS011;6367;52.508;13.284;2022-09-03T00:17:14;1.33;;;1.10;;
12603;SDS011;6367;52.508;13.284;2022-09-03T00:19:50;2.10;;;1.47;;
12603;SDS011;6367;52.508;13.284;2022-09-03T00:22:26;1.80;;;1.40;;
12603;SDS011;6367;52.508;13.284;2022-09-03T00:24:56;1.40;;;1.30;;
12603;SDS011;6367;52.508;13.284;2022-09-03T00:27:26;1.90;;;1.60;;
12603;SDS011;6367;52.508;13.284;2022-09-03T00:32:28;2.53;;;1.50;;
12603;SDS011;6367;52.508;13.284;2022-09-03T00:35:04;1.50;;;1.40;;
12603;SDS011;6367;52.508;13.284;2022-09-03T00:37:40;5.57;;;1.77;;
12603;SDS011;6367;52.508;13.284;2022-09-03T00:40:09;2.20;;;1.40;;
12603;SDS011;6367;52.508;13.284;2022-09-03T00:45:58;1.50;;;1.40;;
12603;SDS011;6367;52.508;13.284;2022-09-03T00:48:57;1.97;;;1.40;;
12603;SDS011;6367;52.508;13.284;2022-09-03T00:57:15;2.17;;;1.43;;
12603;SDS011;6367;52.508;13.284;2022-09-03T01:02:51;1.50;;;1.40;;
12603;SDS011;6367;52.508;13.284;2022-09-03T01:10:56;2.50;;;1.60;;
12603;SDS011;6367;52.508;13.284;2022-09-03T01:19:26;1.93;;;1.30;;
12603;SDS011;6367;52.508;13.284;2022-09-03T01:25:30;2.00;;;1.50;;
12603;SDS011;6367;52.508;13.284;2022-09-03T01:47:59;1.57;;;1.30;;
12603;SDS011;6367;52.508;13.284;2022-09-03T01:50:42;2.23;;;1.50;;
12603;SDS011;6367;52.508;13.284;2022-09-03T01:53:31;1.40;;;1.20;;
12603;SDS011;6367;52.508;13.284;2022-09-03T01:56:12;1.53;;;1.43;;
12603;SDS011;6367;52.508;13.284;2022-09-03T01:58:56;1.90;;;1.30;;
12603;SDS011;6367;52.508;13.284;2022-09-03T02:01:29;2.10;;;1.30;;
12603;SDS011;6367;52.508;13.284;2022-09-03T02:04:15;2.07;;;1.60;;
12603;SDS011;6367;52.508;13.284;2022-09-03T02:06:44;1.47;;;1.30;;
12603;SDS011;6367;52.508;13.284;2022-09-03T02:09:12;2.30;;;1.77;;
12603;SDS011;6367;52.508;13.284;2022-09-03T02:11:39;2.30;;;1.10;;
12603;SDS011;6367;52.508;13.284;2022-09-03T02:14:06;3.03;;;1.20;;
12603;SDS011;6367;52.508;13.284;2022-09-03T02:16:32;1.70;;;1.10;;
12603;SDS011;6367;52.508;13.284;2022-09-03T02:19:03;2.20;;;1.23;;
12603;SDS011;6367;52.508;13.284;2022-09-03T02:21:36;4.97;;;1.40;;
12603;SDS011;6367;52.508;13.284;2022-09-03T02:24:03;1.97;;;1.77;;
12603;SDS011;6367;52.508;13.284;2022-09-03T02:26:30;1.87;;;1.53;;
12603;SDS011;6367;52.508;13.284;2022-09-03T02:28:55;1.97;;;1.20;;
12603;SDS011;6367;52.508;13.284;2022-09-03T02:31:22;1.60;;;1.47;;
12603;SDS011;6367;52.508;13.284;2022-09-03T02:33:48;1.80;;;1.23;;
12603;SDS011;6367;52.508;13.284;2022-09-03T02:36:17;1.30;;;1.20;;
12603;SDS011;6367;52.508;13.284;2022-09-03T02:38:48;1.87;;;1.67;;
12603;SDS011;6367;52.508;13.284;2022-09-03T02:41:14;1.50;;;1.40;;
12603;SDS011;6367;52.508;13.284;2022-09-03T02:46:08;3.17;;;1.50;;
12603;SDS011;6367;52.508;13.284;2022-09-03T02:48:40;1.47;;;1.33;;
12603;SDS011;6367;52.508;13.284;2022-09-03T02:51:06;1.57;;;1.40;;
12603;SDS011;6367;52.508;13.284;2022-09-03T02:53:32;2.70;;;1.37;;
12603;SDS011;6367;52.508;13.284;2022-09-03T02:55:58;3.17;;;1.53;;
12603;SDS011;6367;52.508;13.284;2022-09-03T02:58:27;2.43;;;1.50;;
12603;SDS011;6367;52.508;13.284;2022-09-03T03:00:53;2.43;;;1.60;;
12603;SDS011;6367;52.508;13.284;2022-09-03T03:03:19;1.23;;;1.13;;
12603;SDS011;6367;52.508;13.284;2022-09-03T03:05:49;2.13;;;1.47;;
12603;SDS011;6367;52.508;13.284;2022-09-03T03:08:20;3.03;;;1.47;;
12603;SDS011;6367;52.508;13.284;2022-09-03T03:10:47;1.97;;;1.60;;
12603;SDS011;6367;52.508;13.284;2022-09-03T03:13:14;1.90;;;1.13;;
12603;SDS011;6367;52.508;13.284;2022-09-03T03:15:40;2.27;;;1.60;;
12603;SDS011;6367;52.508;13.284;2022-09-03T03:18:06;2.57;;;1.70;;
12603;SDS011;6367;52.508;13.284;2022-09-03T03:20:35;1.67;;;1.17;;
12603;SDS011;6367;52.508;13.284;2022-09-03T03:23:02;3.27;;;1.50;;
12603;SDS011;6367;52.508;13.284;2022-09-03T03:25:31;2.63;;;1.67;;
12603;SDS011;6367;52.508;13.284;2022-09-03T03:27:57;2.43;;;1.70;;
12603;SDS011;6367;52.508;13.284;2022-09-03T03:30:24;2.20;;;1.33;;
12603;SDS011;6367;52.508;13.284;2022-09-03T03:32:51;1.90;;;1.50;;
12603;SDS011;6367;52.508;13.284;2022-09-03T03:35:17;2.27;;;1.33;;
12603;SDS011;6367;52.508;13.284;2022-09-03T03:37:43;1.73;;;1.43;;
12603;SDS011;6367;52.508;13.284;2022-09-03T03:40:09;2.17;;;1.50;;
12603;SDS011;6367;52.508;13.284;2022-09-03T03:42:35;2.57;;;1.60;;
12603;SDS011;6367;52.508;13.284;2022-09-03T03:45:01;2.00;;;1.63;;
12603;SDS011;6367;52.508;13.284;2022-09-03T03:47:30;3.00;;;1.40;;
12603;SDS011;6367;52.508;13.284;2022-09-03T03:49:56;1.73;;;1.40;;
12603;SDS011;6367;52.508;13.284;2022-09-03T03:52:22;2.70;;;1.50;;
12603;SDS011;6367;52.508;13.284;2022-09-03T03:54:49;2.10;;;1.70;;
12603;SDS011;6367;52.508;13.284;2022-09-03T03:57:16;1.90;;;1.40;;
12603;SDS011;6367;52.508;13.284;2022-09-03T03:59:43;1.47;;;1.37;;
12603;SDS011;6367;52.508;13.284;2022-09-03T04:02:09;2.50;;;1.60;;
12603;SDS011;6367;52.508;13.284;2022-09-03T04:04:35;1.70;;;1.60;;
12603;SDS011;6367;52.508;13.284;2022-09-03T04:07:00;3.07;;;1.90;;
12603;SDS011;6367;52.508;13.284;2022-09-03T04:09:26;2.43;;;1.73;;
12603;SDS011;6367;52.508;13.284;2022-09-03T04:11:52;2.60;;;1.53;;
12603;SDS011;6367;52.508;13.284;2022-09-03T04:14:17;3.27;;;1.70;;
12603;SDS011;6367;52.508;13.284;2022-09-03T04:16:43;2.23;;;2.00;;
12603;SDS011;6367;52.508;13.284;2022-09-03T04:19:10;2.30;;;1.80;;
12603;SDS011;6367;52.508;13.284;2022-09-03T04:21:37;3.27;;;1.87;;
12603;SDS011;6367;52.508;13.284;2022-09-03T04:24:03;3.33;;;1.83;;
12603;SDS011;6367;52.508;13.284;2022-09-03T04:26:30;1.80;;;1.70;;
12603;SDS011;6367;52.508;13.284;2022-09-03T04:28:57;4.47;;;2.07;;
12603;SDS011;6367;52.508;13.284;2022-09-03T04:31:25;1.53;;;1.20;;
12603;SDS011;6367;52.508;13.284;2022-09-03T04:33:50;3.60;;;1.97;;
12603;SDS011;6367;52.508;13.284;2022-09-03T04:36:17;3.23;;;1.60;;
12603;SDS011;6367;52.508;13.284;2022-09-03T04:38:45;1.90;;;1.70;;
12603;SDS011;6367;52.508;13.284;2022-09-03T04:41:15;2.20;;;1.57;;
12603;SDS011;6367;52.508;13.284;2022-09-03T04:43:43;2.20;;;1.40;;
12603;SDS011;6367;52.508;13.284;2022-09-03T04:46:09;2.53;;;1.60;;
12603;SDS011;6367;52.508;13.284;2022-09-03T04:48:36;2.50;;;1.57;;
12603;SDS011;6367;52.508;13.284;2022-09-03T04:51:03;4.80;;;1.83;;
12603;SDS011;6367;52.508;13.284;2022-09-03T04:53:36;2.60;;;1.57;;
12603;SDS011;6367;52.508;13.284;2022-09-03T04:58:40;1.63;;;1.50;;
12603;SDS011;6367;52.508;13.284;2022-09-03T05:01:18;3.67;;;1.83;;
12603;SDS011;6367;52.508;13.284;2022-09-03T05:03:45;1.70;;;1.60;;
12603;SDS011;6367;52.508;13.284;2022-09-03T05:06:11;4.03;;;2.37;;
12603;SDS011;6367;52.508;13.284;2022-09-03T05:08:37;2.50;;;2.00;;
12603;SDS011;6367;52.508;13.284;2022-09-03T05:11:04;1.73;;;1.63;;
12603;SDS011;6367;52.508;13.284;2022-09-03T05:13:31;4.07;;;1.60;;
12603;SDS011;6367;52.508;13.284;2022-09-03T05:16:02;2.20;;;1.73;;
12603;SDS011;6367;52.508;13.284;2022-09-03T05:18:30;3.50;;;2.00;;
12603;SDS011;6367;52.508;13.284;2022-09-03T05:21:15;4.00;;;2.00;;
12603;SDS011;6367;52.508;13.284;2022-09-03T05:23:43;3.20;;;2.00;;
12603;SDS011;6367;52.508;13.284;2022-09-03T05:26:11;2.57;;;1.90;;
12603;SDS011;6367;52.508;13.284;2022-09-03T05:28:41;2.47;;;1.90;;
12603;SDS011;6367;52.508;13.284;2022-09-03T05:31:09;5.57;;;1.80;;
12603;SDS011;6367;52.508;13.284;2022-09-03T05:33:43;3.10;;;2.53;;
12603;SDS011;6367;52.508;13.284;2022-09-03T05:36:14;3.60;;;1.90;;
12603;SDS011;6367;52.508;13.284;2022-09-03T05:38:42;3.07;;;2.27;;
12603;SDS011;6367;52.508;13.284;2022-09-03T05:41:10;6.00;;;1.80;;
12603;SDS011;6367;52.508;13.284;2022-09-03T05:43:36;3.73;;;1.87;;
12603;SDS011;6367;52.508;13.284;2022-09-03T05:46:10;2.33;;;1.90;;
12603;SDS011;6367;52.508;13.284;2022-09-03T05:48:37;4.20;;;2.30;;
12603;SDS011;6367;52.508;13.284;2022-09-03T05:51:08;3.90;;;2.10;;
12603;SDS011;6367;52.508;13.284;2022-09-03T05:53:36;2.40;;;2.00;;
12603;SDS011;6367;52.508;13.284;2022-09-03T05:56:05;1.93;;;1.83;;
12603;SDS011;6367;52.508;13.284;2022-09-03T05:58:35;3.50;;;2.30;;
12603;SDS011;6367;52.508;13.284;2022-09-03T06:03:40;2.97;;;2.20;;
12603;SDS011;6367;52.508;13.284;2022-09-03T06:06:07;2.57;;;1.70;;
12603;SDS011;6367;52.508;13.284;2022-09-03T06:08:33;2.10;;;1.90;;
12603;SDS011;6367;52.508;13.284;2022-09-03T06:11:01;3.40;;;2.10;;
12603;SDS011;6367;52.508;13.284;2022-09-03T06:13:28;2.17;;;1.80;;
12603;SDS011;6367;52.508;13.284;2022-09-03T06:15:55;2.33;;;1.83;;
12603;SDS011;6367;52.508;13.284;2022-09-03T06:18:25;3.90;;;2.37;;
12603;SDS011;6367;52.508;13.284;2022-09-03T06:20:54;2.77;;;1.80;;
12603;SDS011;6367;52.508;13.284;2022-09-03T06:23:21;3.53;;;1.87;;
12603;SDS011;6367;52.508;13.284;2022-09-03T06:25:58;4.70;;;2.67;;
12603;SDS011;6367;52.508;13.284;2022-09-03T06:28:35;4.63;;;2.00;;
12603;SDS011;6367;52.508;13.284;2022-09-03T06:31:03;3.17;;;2.33;;
12603;SDS011;6367;52.508;13.284;2022-09-03T06:33:31;2.77;;;2.30;;
12603;SDS011;6367;52.508;13.284;2022-09-03T06:35:59;6.73;;;2.37;;
12603;SDS011;6367;52.508;13.284;2022-09-03T06:38:26;5.00;;;2.17;;
12603;SDS011;6367;52.508;13.284;2022-09-03T06:40:56;2.60;;;2.10;;
12603;SDS011;6367;52.508;13.284;2022-09-03T06:43:25;3.13;;;2.30;;
12603;SDS011;6367;52.508;13.284;2022-09-03T06:48:28;3.80;;;2.00;;
12603;SDS011;6367;52.508;13.284;2022-09-03T06:50:56;2.50;;;2.10;;
12603;SDS011;6367;52.508;13.284;2022-09-03T06:53:27;3.27;;;2.23;;
12603;SDS011;6367;52.508;13.284;2022-09-03T06:55:57;2.10;;;1.97;;
12603;SDS011;6367;52.508;13.284;2022-09-03T06:58:28;3.03;;;2.07;;
12603;SDS011;6367;52.508;13.284;2022-09-03T07:04:05;3.13;;;1.73;;
12603;SDS011;6367;52.508;13.284;2022-09-03T07:06:34;2.40;;;2.20;;
12603;SDS011;6367;52.508;13.284;2022-09-03T07:09:04;2.33;;;2.10;;
12603;SDS011;6367;52.508;13.284;2022-09-03T07:11:31;2.47;;;2.10;;
12603;SDS011;6367;52.508;13.284;2022-09-03T07:13:59;3.10;;;2.03;;
12603;SDS011;6367;52.508;13.284;2022-09-03T07:16:27;3.87;;;2.00;;
12603;SDS011;6367;52.508;13.284;2022-09-03T07:18:53;2.70;;;2.10;;
12603;SDS011;6367;52.508;13.284;2022-09-03T07:21:21;2.43;;;2.23;;
12603;SDS011;6367;52.508;13.284;2022-09-03T07:23:49;2.50;;;2.30;;
12603;SDS011;6367;52.508;13.284;2022-09-03T07:26:20;2.20;;;2.00;;
12603;SDS011;6367;52.508;13.284;2022-09-03T07:28:53;3.57;;;2.33;;
12603;SDS011;6367;52.508;13.284;2022-09-03T07:31:20;5.20;;;2.03;;
12603;SDS011;6367;52.508;13.284;2022-09-03T07:33:49;4.00;;;2.07;;
12603;SDS011;6367;52.508;13.284;2022-09-03T07:36:18;2.13;;;1.83;;
12603;SDS011;6367;52.508;13.284;2022-09-03T07:38:44;3.77;;;1.80;;
12603;SDS011;6367;52.508;13.284;2022-09-03T07:41:11;3.47;;;2.07;;
12603;SDS011;6367;52.508;13.284;2022-09-03T07:43:38;3.20;;;2.00;;
12603;SDS011;6367;52.508;13.284;2022-09-03T07:46:07;3.10;;;2.30;;
12603;SDS011;6367;52.508;13.284;2022-09-03T07:48:38;2.63;;;1.87;;
12603;SDS011;6367;52.508;13.284;2022-09-03T07:51:05;2.70;;;1.70;;
12603;SDS011;6367;52.508;13.284;2022-09-03T07:53:30;2.23;;;1.90;;
12603;SDS011;6367;52.508;13.284;2022-09-03T07:56:02;3.23;;;2.10;;
12603;SDS011;6367;52.508;13.284;2022-09-03T07:58:30;3.87;;;3.00;;
12603;SDS011;6367;52.508;13.284;2022-09-03T08:00:57;6.53;;;2.03;;
12603;SDS011;6367;52.508;13.284;2022-09-03T08:03:27;2.90;;;2.40;;
12603;SDS011;6367;52.508;13.284;2022-09-03T08:05:53;2.30;;;1.90;;
12603;SDS011;6367;52.508;13.284;2022-09-03T08:08:19;5.37;;;2.30;;
12603;SDS011;6367;52.508;13.284;2022-09-03T08:10:45;2.07;;;1.87;;
12603;SDS011;6367;52.508;13.284;2022-09-03T08:13:10;4.10;;;1.93;;
12603;SDS011;6367;52.508;13.284;2022-09-03T08:15:36;2.10;;;1.90;;
12603;SDS011;6367;52.508;13.284;2022-09-03T08:18:04;2.33;;;2.13;;
12603;SDS011;6367;52.508;13.284;2022-09-03T08:20:29;2.60;;;2.40;;
12603;SDS011;6367;52.508;13.284;2022-09-03T08:23:01;2.97;;;2.10;;
12603;SDS011;6367;52.508;13.284;2022-09-03T08:25:27;2.50;;;1.77;;
12603;SDS011;6367;52.508;13.284;2022-09-03T08:27:53;5.47;;;2.30;;
12603;SDS011;6367;52.508;13.284;2022-09-03T08:30:21;2.60;;;1.77;;
12603;SDS011;6367;52.508;13.284;2022-09-03T08:32:48;2.07;;;1.73;;
12603;SDS011;6367;52.508;13.284;2022-09-03T08:35:14;2.03;;;1.80;;
12603;SDS011;6367;52.508;13.284;2022-09-03T08:37:40;3.00;;;1.93;;
12603;SDS011;6367;52.508;13.284;2022-09-03T08:40:05;2.33;;;2.13;;
12603;SDS011;6367;52.508;13.284;2022-09-03T08:42:35;1.83;;;1.73;;
12603;SDS011;6367;52.508;13.284;2022-09-03T08:45:17;2.63;;;2.07;;
12603;SDS011;6367;52.508;13.284;2022-09-03T08:50:43;4.80;;;2.10;;
12603;SDS011;6367;52.508;13.284;2022-09-03T08:53:14;1.73;;;1.63;;
12603;SDS011;6367;52.508;13.284;2022-09-03T08:56:06;2.07;;;1.83;;
12603;SDS011;6367;52.508;13.284;2022-09-03T08:58:35;3.10;;;1.60;;
12603;SDS011;6367;52.508;13.284;2022-09-03T09:08:47;3.33;;;2.03;;
12603;SDS011;6367;52.508;13.284;2022-09-03T09:14:11;2.07;;;1.87;;
12603;SDS011;6367;52.508;13.284;2022-09-03T09:22:37;2.13;;;1.83;;
12603;SDS011;6367;52.508;13.284;2022-09-03T09:25:09;2.40;;;2.00;;
12603;SDS011;6367;52.508;13.284;2022-09-03T09:27:47;1.80;;;1.70;;
12603;SDS011;6367;52.508;13.284;2022-09-03T09:30:20;2.23;;;1.70;;
12603;SDS011;6367;52.508;13.284;2022-09-03T09:32:45;3.97;;;2.00;;
12603;SDS011;6367;52.508;13.284;2022-09-03T09:35:11;3.13;;;1.97;;
12603;SDS011;6367;52.508;13.284;2022-09-03T09:37:51;3.53;;;1.90;;
12603;SDS011;6367;52.508;13.284;2022-09-03T09:40:32;2.00;;;1.73;;
12603;SDS011;6367;52.508;13.284;2022-09-03T09:45:39;1.90;;;1.60;;
12603;SDS011;6367;52.508;13.284;2022-09-03T09:48:08;2.43;;;1.73;;
12603;SDS011;6367;52.508;13.284;2022-09-03T09:50:39;4.20;;;1.57;;
12603;SDS011;6367;52.508;13.284;2022-09-03T09:53:06;2.00;;;1.40;;
12603;SDS011;6367;52.508;13.284;2022-09-03T09:55:52;1.43;;;1.33;;
12603;SDS011;6367;52.508;13.284;2022-09-03T09:58:20;2.23;;;1.97;;
12603;SDS011;6367;52.508;13.284;2022-09-03T10:03:52;3.90;;;1.77;;
12603;SDS011;6367;52.508;13.284;2022-09-03T10:06:23;2.70;;;1.60;;
12603;SDS011;6367;52.508;13.284;2022-09-03T10:09:10;3.93;;;1.40;;
12603;SDS011;6367;52.508;13.284;2022-09-03T10:11:38;1.83;;;1.10;;
12603;SDS011;6367;52.508;13.284;2022-09-03T10:14:09;1.77;;;1.60;;
12603;SDS011;6367;52.508;13.284;2022-09-03T10:16:43;1.90;;;1.80;;
12603;SDS011;6367;52.508;13.284;2022-09-03T10:19:16;1.80;;;1.40;;
12603;SDS011;6367;52.508;13.284;2022-09-03T10:21:50;2.10;;;1.47;;
12603;SDS011;6367;52.508;13.284;2022-09-03T10:24:36;2.30;;;1.60;;
12603;SDS011;6367;52.508;13.284;2022-09-03T10:27:12;1.97;;;1.57;;
12603;SDS011;6367;52.508;13.284;2022-09-03T10:29:40;1.90;;;1.77;;
12603;SDS011;6367;52.508;13.284;2022-09-03T10:46:47;3.20;;;1.40;;
12603;SDS011;6367;52.508;13.284;2022-09-03T10:49:35;3.37;;;1.50;;
12603;SDS011;6367;52.508;13.284;2022-09-03T10:52:46;2.13;;;1.70;;
12603;SDS011;6367;52.508;13.284;2022-09-03T10:55:26;1.43;;;1.30;;
12603;SDS011;6367;52.508;13.284;2022-09-03T11:00:38;3.07;;;2.00;;
12603;SDS011;6367;52.508;13.284;2022-09-03T11:12:58;2.47;;;1.50;;
12603;SDS011;6367;52.508;13.284;2022-09-03T11:15:08;5.97;;;2.27;;
12603;SDS011;6367;52.508;13.284;2022-09-03T11:17:52;2.20;;;1.80;;
12603;SDS011;6367;52.508;13.284;2022-09-03T11:20:23;2.70;;;1.70;;
12603;SDS011;6367;52.508;13.284;2022-09-03T11:22:51;2.70;;;1.50;;
12603;SDS011;6367;52.508;13.284;2022-09-03T11:25:20;1.93;;;1.60;;
12603;SDS011;6367;52.508;13.284;2022-09-03T11:28:01;1.60;;;1.43;;
12603;SDS011;6367;52.508;13.284;2022-09-03T11:33:05;2.60;;;1.70;;
12603;SDS011;6367;52.508;13.284;2022-09-03T11:38:00;1.87;;;1.57;;
12603;SDS011;6367;52.508;13.284;2022-09-03T11:40:36;3.50;;;1.87;;
12603;SDS011;6367;52.508;13.284;2022-09-03T11:43:10;2.40;;;2.07;;
12603;SDS011;6367;52.508;13.284;2022-09-03T11:48:47;1.83;;;1.73;;
12603;SDS011;6367;52.508;13.284;2022-09-03T11:56:47;1.53;;;1.43;;
12603;SDS011;6367;52.508;13.284;2022-09-03T11:59:18;3.70;;;1.70;;
12603;SDS011;6367;52.508;13.284;2022-09-03T12:01:58;4.47;;;1.73;;
12603;SDS011;6367;52.508;13.284;2022-09-03T12:04:34;3.30;;;1.37;;
12603;SDS011;6367;52.508;13.284;2022-09-03T12:13:15;1.67;;;1.57;;
12603;SDS011;6367;52.508;13.284;2022-09-03T12:18:49;2.60;;;2.13;;
12603;SDS011;6367;52.508;13.284;2022-09-03T12:21:17;2.50;;;1.50;;
12603;SDS011;6367;52.508;13.284;2022-09-03T12:23:44;1.53;;;1.43;;
12603;SDS011;6367;52.508;13.284;2022-09-03T12:28:51;3.20;;;1.60;;
12603;SDS011;6367;52.508;13.284;2022-09-03T12:31:20;1.80;;;1.70;;
12603;SDS011;6367;52.508;13.284;2022-09-03T12:36:15;1.60;;;1.50;;
12603;SDS011;6367;52.508;13.284;2022-09-03T12:38:42;1.43;;;1.33;;
12603;SDS011;6367;52.508;13.284;2022-09-03T12:41:21;3.00;;;1.50;;
12603;SDS011;6367;52.508;13.284;2022-09-03T12:43:51;2.30;;;1.47;;
12603;SDS011;6367;52.508;13.284;2022-09-03T12:46:24;4.53;;;1.83;;
12603;SDS011;6367;52.508;13.284;2022-09-03T12:48:53;3.10;;;1.57;;
12603;SDS011;6367;52.508;13.284;2022-09-03T12:51:23;3.00;;;1.70;;
12603;SDS011;6367;52.508;13.284;2022-09-03T12:53:49;2.77;;;1.63;;
12603;SDS011;6367;52.508;13.284;2022-09-03T12:56:16;2.90;;;1.53;;
12603;SDS011;6367;52.508;13.284;2022-09-03T12:58:53;3.47;;;1.60;;
12603;SDS011;6367;52.508;13.284;2022-09-03T13:01:24;1.60;;;1.50;;
12603;SDS011;6367;52.508;13.284;2022-09-03T13:09:18;2.37;;;1.57;;
12603;SDS011;6367;52.508;13.284;2022-09-03T13:11:46;2.70;;;1.80;;
12603;SDS011;6367;52.508;13.284;2022-09-03T13:14:13;4.17;;;1.70;;
12603;SDS011;6367;52.508;13.284;2022-09-03T13:22:24;4.43;;;1.40;;
12603;SDS011;6367;52.508;13.284;2022-09-03T13:33:49;2.40;;;1.43;;
12603;SDS011;6367;52.508;13.284;2022-09-03T13:36:20;1.97;;;1.40;;
12603;SDS011;6367;52.508;13.284;2022-09-03T13:46:43;1.67;;;1.57;;
12603;SDS011;6367;52.508;13.284;2022-09-03T13:52:33;2.10;;;1.40;;
12603;SDS011;6367;52.508;13.284;2022-09-03T13:55:24;3.13;;;1.50;;
12603;SDS011;6367;52.508;13.284;2022-09-03T14:00:29;1.83;;;1.73;;
12603;SDS011;6367;52.508;13.284;2022-09-03T14:03:06;2.13;;;1.60;;
12603;SDS011;6367;52.508;13.284;2022-09-03T14:05:35;1.70;;;1.60;;
12603;SDS011;6367;52.508;13.284;2022-09-03T14:13:27;3.90;;;1.90;;
12603;SDS011;6367;52.508;13.284;2022-09-03T14:16:03;3.93;;;2.10;;
12603;SDS011;6367;52.508;13.284;2022-09-03T14:18:40;2.67;;;1.83;;
12603;SDS011;6367;52.508;13.284;2022-09-03T14:21:28;2.20;;;1.77;;
12603;SDS011;6367;52.508;13.284;2022-09-03T14:26:53;2.33;;;1.70;;
12603;SDS011;6367;52.508;13.284;2022-09-03T14:29:26;2.30;;;1.97;;
12603;SDS011;6367;52.508;13.284;2022-09-03T14:45:54;5.33;;;1.90;;
12603;SDS011;6367;52.508;13.284;2022-09-03T14:56:37;2.20;;;2.00;;
12603;SDS011;6367;52.508;13.284;2022-09-03T15:02:05;2.20;;;1.60;;
12603;SDS011;6367;52.508;13.284;2022-09-03T15:04:50;1.93;;;1.67;;
12603;SDS011;6367;52.508;13.284;2022-09-03T15:07:40;3.33;;;2.40;;
12603;SDS011;6367;52.508;13.284;2022-09-03T15:15:44;2.03;;;1.47;;
12603;SDS011;6367;52.508;13.284;2022-09-03T15:21:14;2.20;;;2.00;;
12603;SDS011;6367;52.508;13.284;2022-09-03T15:37:26;2.37;;;1.83;;
12603;SDS011;6367;52.508;13.284;2022-09-03T15:40:47;3.60;;;2.23;;
12603;SDS011;6367;52.508;13.284;2022-09-03T15:43:02;2.53;;;1.90;;
12603;SDS011;6367;52.508;13.284;2022-09-03T15:50:52;3.20;;;2.53;;
12603;SDS011;6367;52.508;13.284;2022-09-03T15:59:02;5.63;;;2.53;;
12603;SDS011;6367;52.508;13.284;2022-09-03T16:06:49;1.97;;;1.87;;
12603;SDS011;6367;52.508;13.284;2022-09-03T16:09:26;2.40;;;2.20;;
12603;SDS011;6367;52.508;13.284;2022-09-03T16:14:46;2.67;;;1.90;;
12603;SDS011;6367;52.508;13.284;2022-09-03T16:17:41;2.17;;;1.90;;
12603;SDS011;6367;52.508;13.284;2022-09-03T16:20:30;3.07;;;2.33;;
12603;SDS011;6367;52.508;13.284;2022-09-03T16:23:20;3.23;;;2.43;;
12603;SDS011;6367;52.508;13.284;2022-09-03T16:25:55;3.03;;;2.43;;
12603;SDS011;6367;52.508;13.284;2022-09-03T16:28:27;2.93;;;2.70;;
12603;SDS011;6367;52.508;13.284;2022-09-03T16:31:01;2.60;;;2.37;;
12603;SDS011;6367;52.508;13.284;2022-09-03T16:56:49;5.73;;;4.90;;
12603;SDS011;6367;52.508;13.284;2022-09-03T16:59:34;8.30;;;6.37;;
12603;SDS011;6367;52.508;13.284;2022-09-03T17:05:10;3.90;;;3.40;;
12603;SDS011;6367;52.508;13.284;2022-09-03T17:08:00;7.60;;;3.47;;
12603;SDS011;6367;52.508;13.284;2022-09-03T17:11:06;5.20;;;3.00;;
12603;SDS011;6367;52.508;13.284;2022-09-03T17:16:16;3.60;;;2.83;;
12603;SDS011;6367;52.508;13.284;2022-09-03T17:19:00;3.23;;;2.90;;
12603;SDS011;6367;52.508;13.284;2022-09-03T17:30:04;3.30;;;3.00;;
12603;SDS011;6367;52.508;13.284;2022-09-03T17:37:59;3.90;;;3.30;;
12603;SDS011;6367;52.508;13.284;2022-09-03T17:43:26;5.87;;;3.40;;
12603;SDS011;6367;52.508;13.284;2022-09-03T17:46:12;3.70;;;3.40;;
12603;SDS011;6367;52.508;13.284;2022-09-03T17:48:51;4.27;;;3.37;;
12603;SDS011;6367;52.508;13.284;2022-09-03T17:59:28;4.03;;;3.63;;
12603;SDS011;6367;52.508;13.284;2022-09-03T18:07:22;4.57;;;3.83;;
12603;SDS011;6367;52.508;13.284;2022-09-03T18:10:05;5.93;;;3.50;;
12603;SDS011;6367;52.508;13.284;2022-09-03T18:15:24;4.53;;;3.43;;
12603;SDS011;6367;52.508;13.284;2022-09-03T18:18:00;4.67;;;3.43;;
12603;SDS011;6367;52.508;13.284;2022-09-03T18:20:50;4.73;;;4.23;;
12603;SDS011;6367;52.508;13.284;2022-09-03T18:30:06;5.20;;;3.70;;
12603;SDS011;6367;52.508;13.284;2022-09-03T18:32:52;4.47;;;3.37;;
12603;SDS011;6367;52.508;13.284;2022-09-03T18:35:36;5.80;;;4.10;;
12603;SDS011;6367;52.508;13.284;2022-09-03T18:38:25;4.20;;;3.80;;
12603;SDS011;6367;52.508;13.284;2022-09-03T18:41:15;3.80;;;3.50;;
12603;SDS011;6367;52.508;13.284;2022-09-03T18:48:05;7.43;;;4.00;;
12603;SDS011;6367;52.508;13.284;2022-09-03T18:51:07;3.90;;;3.40;;
12603;SDS011;6367;52.508;13.284;2022-09-03T18:54:26;4.27;;;3.13;;
12603;SDS011;6367;52.508;13.284;2022-09-03T18:57:22;4.57;;;3.90;;
12603;SDS011;6367;52.508;13.284;2022-09-03T19:00:14;4.17;;;3.63;;
12603;SDS011;6367;52.508;13.284;2022-09-03T19:06:02;5.00;;;4.30;;
12603;SDS011;6367;52.508;13.284;2022-09-03T19:14:52;7.10;;;4.20;;
12603;SDS011;6367;52.508;13.284;2022-09-03T19:21:08;4.67;;;3.80;;
12603;SDS011;6367;52.508;13.284;2022-09-03T19:24:03;6.00;;;4.83;;
12603;SDS011;6367;52.508;13.284;2022-09-03T19:30:03;5.50;;;4.00;;
12603;SDS011;6367;52.508;13.284;2022-09-03T19:35:59;6.10;;;4.37;;
12603;SDS011;6367;52.508;13.284;2022-09-03T19:39:29;3.90;;;3.50;;
12603;SDS011;6367;52.508;13.284;2022-09-03T19:51:04;4.80;;;4.30;;
12603;SDS011;6367;52.508;13.284;2022-09-03T19:54:03;4.90;;;3.80;;
12603;SDS011;6367;52.508;13.284;2022-09-03T19:56:50;5.60;;;3.60;;
12603;SDS011;6367;52.508;13.284;2022-09-03T19:59:38;5.67;;;3.83;;
12603;SDS011;6367;52.508;13.284;2022-09-03T20:02:24;7.50;;;3.83;;
12603;SDS011;6367;52.508;13.284;2022-09-03T20:05:09;3.90;;;3.20;;
12603;SDS011;6367;52.508;13.284;2022-09-03T20:07:58;4.37;;;3.27;;
12603;SDS011;6367;52.508;13.284;2022-09-03T20:10:43;3.73;;;3.30;;
12603;SDS011;6367;52.508;13.284;2022-09-03T20:13:17;3.90;;;2.87;;
12603;SDS011;6367;52.508;13.284;2022-09-03T20:21:17;5.60;;;3.40;;
12603;SDS011;6367;52.508;13.284;2022-09-03T20:26:48;5.53;;;3.50;;
12603;SDS011;6367;52.508;13.284;2022-09-03T20:43:33;4.87;;;2.93;;
12603;SDS011;6367;52.508;13.284;2022-09-03T20:51:47;5.50;;;2.70;;
12603;SDS011;6367;52.508;13.284;2022-09-03T20:54:27;3.13;;;2.83;;
12603;SDS011;6367;52.508;13.284;2022-09-03T21:00:01;4.33;;;3.30;;
12603;SDS011;6367;52.508;13.284;2022-09-03T21:11:18;2.67;;;2.43;;
12603;SDS011;6367;52.508;13.284;2022-09-03T21:14:00;3.97;;;2.70;;
12603;SDS011;6367;52.508;13.284;2022-09-03T21:19:31;4.10;;;2.90;;
12603;SDS011;6367;52.508;13.284;2022-09-03T21:22:07;3.50;;;3.13;;
12603;SDS011;6367;52.508;13.284;2022-09-03T21:24:53;2.83;;;2.63;;
12603;SDS011;6367;52.508;13.284;2022-09-03T21:27:24;2.73;;;2.50;;
12603;SDS011;6367;52.508;13.284;2022-09-03T21:30:00;2.70;;;2.50;;
12603;SDS011;6367;52.508;13.284;2022-09-03T21:32:32;4.07;;;2.80;;
12603;SDS011;6367;52.508;13.284;2022-09-03T21:35:09;3.30;;;2.40;;
12603;SDS011;6367;52.508;13.284;2022-09-03T21:37:43;3.83;;;2.37;;
12603;SDS011;6367;52.508;13.284;2022-09-03T21:40:16;5.40;;;2.13;;
12603;SDS011;6367;52.508;13.284;2022-09-03T21:42:51;2.10;;;2.00;;
12603;SDS011;6367;52.508;13.284;2022-09-03T21:45:50;4.03;;;2.57;;
12603;SDS011;6367;52.508;13.284;2022-09-03T21:48:29;3.37;;;2.37;;
12603;SDS011;6367;52.508;13.284;2022-09-03T21:51:00;4.00;;;2.00;;
12603;SDS011;6367;52.508;13.284;2022-09-03T22:02:22;2.70;;;2.50;;
12603;SDS011;6367;52.508;13.284;2022-09-03T22:04:52;2.97;;;2.40;;
12603;SDS011;6367;52.508;13.284;2022-09-03T22:07:25;2.63;;;2.30;;